Huvudsida
METAR-TAF:

METAR-TAF

Flygplatser :

Jönköping Airport

Jönköping, Sverige

latitud: 57-46N, longitud: 014-05E, höjd: 226 m

Aktuellt väderrapport

Denna rapport gjordes för 32 minuter sedan, klockan 03:20 UTC
Vind 10 kt från syd/sydväst
Temperatur 3°C
Fuktighet 93%
Tryck 999 hPa
Sikt 10 km eller mer

METAR: ESGJ 190320Z AUTO 20010KT 9999 BKN010/// OVC014/// 03/02 Q0999

Tid: 04:52 (03:52 UTC)

Väderprognos

Denna rapport gjordes för 4 timmar och 22 minuter sedan, klockan 23:30 UTC
Prognos gäller från 19 kl. 00 UTC till 19 kl. 02 UTC
Vind 14 kt från sydväst i byarna ända upp till 24 kt
Sikt 10 km eller mer
Spridda moln på en höjd av 1000 ft
Brutna moln på en höjd av 2500 ft
Temporärt
från 19 kl. 00 UTC till 19 kl. 02 UTC
Brutna moln på en höjd av 900 ft
Spridda moln på en höjd av 2000 ft, Cumulonimbus.

TAF: ESGJ 182330Z 1900/1902 23014G24KT 9999 SCT010 BKN025 TEMPO 1900/1902 BKN009 SCT020CB

Aktuella väderrapporter och prognoser från 4000 flygplatser (METAR- och TAF-rapporter).

De tillgängliga stationerna syns som gula och röda prickar på kartan.

För musen över prickarna för att se namnen på stationerna.

Klicka sedan för att få väderrapporter och prognoser.

För att ändra kartan: Klicka på de gröna knapparna med ett svart kors på för att zooma in; den gröna knappen med ett streck på för att zooma ut; eller på de gröna pilarna för angränsande kartor.


METAR-TAF: